sensor_id;sensor_type;location;lat;lon;timestamp;P1;durP1;ratioP1;P2;durP2;ratioP2
1949;SDS011;975;48.760;9.152;2023-06-26T00:02:44;8.23;;;4.40;;
1949;SDS011;975;48.760;9.152;2023-06-26T00:05:32;9.43;;;4.78;;
1949;SDS011;975;48.760;9.152;2023-06-26T00:08:20;10.93;;;4.68;;
1949;SDS011;975;48.760;9.152;2023-06-26T00:11:13;8.63;;;4.47;;
1949;SDS011;975;48.760;9.152;2023-06-26T00:14:01;7.63;;;4.70;;
1949;SDS011;975;48.760;9.152;2023-06-26T00:16:50;9.98;;;4.78;;
1949;SDS011;975;48.760;9.152;2023-06-26T00:19:38;8.65;;;4.50;;
1949;SDS011;975;48.760;9.152;2023-06-26T00:22:25;9.88;;;4.95;;
1949;SDS011;975;48.760;9.152;2023-06-26T00:25:16;8.25;;;4.35;;
1949;SDS011;975;48.760;9.152;2023-06-26T00:28:07;8.98;;;5.00;;
1949;SDS011;975;48.760;9.152;2023-06-26T00:30:54;8.55;;;5.20;;
1949;SDS011;975;48.760;9.152;2023-06-26T00:33:43;8.98;;;4.60;;
1949;SDS011;975;48.760;9.152;2023-06-26T00:36:31;8.52;;;4.95;;
1949;SDS011;975;48.760;9.152;2023-06-26T00:39:19;8.00;;;4.28;;
1949;SDS011;975;48.760;9.152;2023-06-26T00:42:07;9.05;;;5.13;;
1949;SDS011;975;48.760;9.152;2023-06-26T00:44:58;8.27;;;4.60;;
1949;SDS011;975;48.760;9.152;2023-06-26T00:47:45;8.52;;;4.28;;
1949;SDS011;975;48.760;9.152;2023-06-26T00:50:34;8.70;;;4.28;;
1949;SDS011;975;48.760;9.152;2023-06-26T00:53:22;8.43;;;4.80;;
1949;SDS011;975;48.760;9.152;2023-06-26T00:56:10;9.82;;;4.53;;
1949;SDS011;975;48.760;9.152;2023-06-26T00:59:04;8.02;;;4.45;;
1949;SDS011;975;48.760;9.152;2023-06-26T01:01:54;8.80;;;4.70;;
1949;SDS011;975;48.760;9.152;2023-06-26T01:04:42;9.30;;;4.43;;
1949;SDS011;975;48.760;9.152;2023-06-26T01:07:34;8.75;;;4.93;;
1949;SDS011;975;48.760;9.152;2023-06-26T01:10:23;8.50;;;4.72;;
1949;SDS011;975;48.760;9.152;2023-06-26T01:13:13;8.70;;;4.50;;
1949;SDS011;975;48.760;9.152;2023-06-26T01:16:01;10.88;;;5.30;;
1949;SDS011;975;48.760;9.152;2023-06-26T01:18:49;8.68;;;4.85;;
1949;SDS011;975;48.760;9.152;2023-06-26T01:21:37;8.48;;;4.57;;
1949;SDS011;975;48.760;9.152;2023-06-26T01:24:33;9.38;;;4.53;;
1949;SDS011;975;48.760;9.152;2023-06-26T01:27:24;7.80;;;4.60;;
1949;SDS011;975;48.760;9.152;2023-06-26T01:30:12;9.10;;;4.47;;
1949;SDS011;975;48.760;9.152;2023-06-26T01:33:00;9.77;;;4.38;;
1949;SDS011;975;48.760;9.152;2023-06-26T01:35:49;7.57;;;4.70;;
1949;SDS011;975;48.760;9.152;2023-06-26T01:38:40;9.90;;;5.00;;
1949;SDS011;975;48.760;9.152;2023-06-26T01:41:27;7.57;;;4.32;;
1949;SDS011;975;48.760;9.152;2023-06-26T01:44:20;8.32;;;4.75;;
1949;SDS011;975;48.760;9.152;2023-06-26T01:47:10;9.20;;;5.20;;
1949;SDS011;975;48.760;9.152;2023-06-26T01:50:06;8.30;;;4.95;;
1949;SDS011;975;48.760;9.152;2023-06-26T01:52:58;8.77;;;4.57;;
1949;SDS011;975;48.760;9.152;2023-06-26T01:55:51;8.10;;;4.85;;
1949;SDS011;975;48.760;9.152;2023-06-26T01:58:44;8.48;;;4.35;;
1949;SDS011;975;48.760;9.152;2023-06-26T02:01:34;9.98;;;4.43;;
1949;SDS011;975;48.760;9.152;2023-06-26T02:04:22;8.80;;;4.47;;
1949;SDS011;975;48.760;9.152;2023-06-26T02:07:09;8.88;;;4.65;;
1949;SDS011;975;48.760;9.152;2023-06-26T02:09:57;10.18;;;4.60;;
1949;SDS011;975;48.760;9.152;2023-06-26T02:12:45;8.57;;;4.88;;
1949;SDS011;975;48.760;9.152;2023-06-26T02:15:35;8.77;;;4.07;;
1949;SDS011;975;48.760;9.152;2023-06-26T02:18:25;9.25;;;4.97;;
1949;SDS011;975;48.760;9.152;2023-06-26T02:24:07;9.77;;;4.13;;
1949;SDS011;975;48.760;9.152;2023-06-26T02:26:55;9.90;;;5.22;;
1949;SDS011;975;48.760;9.152;2023-06-26T02:29:43;7.28;;;3.90;;
1949;SDS011;975;48.760;9.152;2023-06-26T02:32:34;6.63;;;4.10;;
1949;SDS011;975;48.760;9.152;2023-06-26T02:35:23;7.85;;;4.97;;
1949;SDS011;975;48.760;9.152;2023-06-26T02:38:11;8.73;;;4.80;;
1949;SDS011;975;48.760;9.152;2023-06-26T02:40:58;7.70;;;4.35;;
1949;SDS011;975;48.760;9.152;2023-06-26T02:43:46;8.60;;;4.75;;
1949;SDS011;975;48.760;9.152;2023-06-26T02:46:34;8.88;;;4.72;;
1949;SDS011;975;48.760;9.152;2023-06-26T02:49:22;7.22;;;4.25;;
1949;SDS011;975;48.760;9.152;2023-06-26T02:52:11;7.20;;;4.10;;
1949;SDS011;975;48.760;9.152;2023-06-26T02:54:58;9.73;;;4.97;;
1949;SDS011;975;48.760;9.152;2023-06-26T02:57:46;9.32;;;4.50;;
1949;SDS011;975;48.760;9.152;2023-06-26T03:00:34;8.63;;;4.78;;
1949;SDS011;975;48.760;9.152;2023-06-26T03:03:27;8.80;;;4.60;;
1949;SDS011;975;48.760;9.152;2023-06-26T03:06:14;7.55;;;4.50;;
1949;SDS011;975;48.760;9.152;2023-06-26T03:09:03;10.35;;;5.07;;
1949;SDS011;975;48.760;9.152;2023-06-26T03:11:51;10.85;;;5.30;;
1949;SDS011;975;48.760;9.152;2023-06-26T03:14:41;8.15;;;3.95;;
1949;SDS011;975;48.760;9.152;2023-06-26T03:17:28;10.77;;;4.90;;
1949;SDS011;975;48.760;9.152;2023-06-26T03:20:19;8.35;;;4.57;;
1949;SDS011;975;48.760;9.152;2023-06-26T03:23:07;7.22;;;4.25;;
1949;SDS011;975;48.760;9.152;2023-06-26T03:25:59;8.63;;;4.43;;
1949;SDS011;975;48.760;9.152;2023-06-26T03:28:46;7.47;;;4.15;;
1949;SDS011;975;48.760;9.152;2023-06-26T03:31:34;8.95;;;4.63;;
1949;SDS011;975;48.760;9.152;2023-06-26T03:34:25;8.25;;;4.35;;
1949;SDS011;975;48.760;9.152;2023-06-26T03:37:13;8.25;;;4.28;;
1949;SDS011;975;48.760;9.152;2023-06-26T03:40:01;6.72;;;4.20;;
1949;SDS011;975;48.760;9.152;2023-06-26T03:42:51;8.20;;;4.70;;
1949;SDS011;975;48.760;9.152;2023-06-26T03:45:39;9.77;;;4.72;;
1949;SDS011;975;48.760;9.152;2023-06-26T03:48:27;9.93;;;4.65;;
1949;SDS011;975;48.760;9.152;2023-06-26T03:51:14;8.00;;;4.07;;
1949;SDS011;975;48.760;9.152;2023-06-26T03:54:02;7.95;;;5.15;;
1949;SDS011;975;48.760;9.152;2023-06-26T03:56:50;7.05;;;4.07;;
1949;SDS011;975;48.760;9.152;2023-06-26T03:59:39;8.90;;;4.65;;
1949;SDS011;975;48.760;9.152;2023-06-26T04:02:27;9.43;;;4.60;;
1949;SDS011;975;48.760;9.152;2023-06-26T04:05:15;7.38;;;4.47;;
1949;SDS011;975;48.760;9.152;2023-06-26T04:08:03;8.38;;;4.97;;
1949;SDS011;975;48.760;9.152;2023-06-26T04:10:50;10.07;;;4.47;;
1949;SDS011;975;48.760;9.152;2023-06-26T04:13:39;7.97;;;4.60;;
1949;SDS011;975;48.760;9.152;2023-06-26T04:16:28;10.65;;;4.78;;
1949;SDS011;975;48.760;9.152;2023-06-26T04:19:16;7.80;;;4.50;;
1949;SDS011;975;48.760;9.152;2023-06-26T04:22:04;6.95;;;3.90;;
1949;SDS011;975;48.760;9.152;2023-06-26T04:24:54;10.35;;;5.35;;
1949;SDS011;975;48.760;9.152;2023-06-26T04:27:42;9.68;;;4.80;;
1949;SDS011;975;48.760;9.152;2023-06-26T04:30:30;7.90;;;5.03;;
1949;SDS011;975;48.760;9.152;2023-06-26T04:33:19;14.38;;;5.63;;
1949;SDS011;975;48.760;9.152;2023-06-26T04:36:07;11.07;;;5.03;;
1949;SDS011;975;48.760;9.152;2023-06-26T04:39:04;9.70;;;4.80;;
1949;SDS011;975;48.760;9.152;2023-06-26T04:41:52;7.82;;;4.18;;
1949;SDS011;975;48.760;9.152;2023-06-26T04:44:40;11.20;;;4.90;;
1949;SDS011;975;48.760;9.152;2023-06-26T04:47:30;6.30;;;4.07;;
1949;SDS011;975;48.760;9.152;2023-06-26T04:50:22;7.53;;;4.78;;
1949;SDS011;975;48.760;9.152;2023-06-26T04:53:10;8.80;;;4.97;;
1949;SDS011;975;48.760;9.152;2023-06-26T04:55:58;8.10;;;4.68;;
1949;SDS011;975;48.760;9.152;2023-06-26T04:58:48;10.20;;;5.35;;
1949;SDS011;975;48.760;9.152;2023-06-26T05:01:39;9.15;;;4.30;;
1949;SDS011;975;48.760;9.152;2023-06-26T05:04:27;8.15;;;4.88;;
1949;SDS011;975;48.760;9.152;2023-06-26T05:07:16;8.30;;;5.22;;
1949;SDS011;975;48.760;9.152;2023-06-26T05:10:04;9.13;;;4.60;;
1949;SDS011;975;48.760;9.152;2023-06-26T05:12:52;9.45;;;4.90;;
1949;SDS011;975;48.760;9.152;2023-06-26T05:15:40;7.45;;;4.43;;
1949;SDS011;975;48.760;9.152;2023-06-26T05:18:28;7.80;;;4.18;;
1949;SDS011;975;48.760;9.152;2023-06-26T05:21:16;8.57;;;4.43;;
1949;SDS011;975;48.760;9.152;2023-06-26T05:24:06;7.50;;;4.00;;
1949;SDS011;975;48.760;9.152;2023-06-26T05:26:54;6.72;;;4.20;;
1949;SDS011;975;48.760;9.152;2023-06-26T05:29:42;8.75;;;4.75;;
1949;SDS011;975;48.760;9.152;2023-06-26T05:32:30;7.47;;;4.22;;
1949;SDS011;975;48.760;9.152;2023-06-26T05:35:21;7.90;;;4.30;;
1949;SDS011;975;48.760;9.152;2023-06-26T05:38:10;8.93;;;3.80;;
1949;SDS011;975;48.760;9.152;2023-06-26T05:41:00;9.43;;;3.97;;
1949;SDS011;975;48.760;9.152;2023-06-26T05:43:48;7.75;;;4.30;;
1949;SDS011;975;48.760;9.152;2023-06-26T05:46:36;7.25;;;4.03;;
1949;SDS011;975;48.760;9.152;2023-06-26T05:49:23;8.20;;;4.35;;
1949;SDS011;975;48.760;9.152;2023-06-26T05:52:12;7.82;;;4.78;;
1949;SDS011;975;48.760;9.152;2023-06-26T05:54:59;8.63;;;4.50;;
1949;SDS011;975;48.760;9.152;2023-06-26T05:57:49;12.07;;;4.57;;
1949;SDS011;975;48.760;9.152;2023-06-26T06:00:45;8.30;;;4.72;;
1949;SDS011;975;48.760;9.152;2023-06-26T06:03:33;9.25;;;4.75;;
1949;SDS011;975;48.760;9.152;2023-06-26T06:06:21;9.75;;;4.70;;
1949;SDS011;975;48.760;9.152;2023-06-26T06:09:08;9.77;;;4.35;;
1949;SDS011;975;48.760;9.152;2023-06-26T06:11:56;6.85;;;4.50;;
1949;SDS011;975;48.760;9.152;2023-06-26T06:14:45;6.78;;;4.50;;
1949;SDS011;975;48.760;9.152;2023-06-26T06:17:33;7.70;;;3.92;;
1949;SDS011;975;48.760;9.152;2023-06-26T06:20:21;7.93;;;4.43;;
1949;SDS011;975;48.760;9.152;2023-06-26T06:23:08;8.52;;;4.88;;
1949;SDS011;975;48.760;9.152;2023-06-26T06:25:56;7.05;;;3.80;;
1949;SDS011;975;48.760;9.152;2023-06-26T06:28:44;6.32;;;3.58;;
1949;SDS011;975;48.760;9.152;2023-06-26T06:31:33;7.20;;;3.80;;
1949;SDS011;975;48.760;9.152;2023-06-26T06:34:21;8.02;;;3.97;;
1949;SDS011;975;48.760;9.152;2023-06-26T06:37:08;5.82;;;3.72;;
1949;SDS011;975;48.760;9.152;2023-06-26T06:39:56;7.05;;;4.20;;
1949;SDS011;975;48.760;9.152;2023-06-26T06:42:45;7.13;;;3.65;;
1949;SDS011;975;48.760;9.152;2023-06-26T06:45:32;5.07;;;3.25;;
1949;SDS011;975;48.760;9.152;2023-06-26T06:48:21;6.38;;;4.15;;
1949;SDS011;975;48.760;9.152;2023-06-26T06:51:09;6.25;;;3.88;;
1949;SDS011;975;48.760;9.152;2023-06-26T06:53:57;5.75;;;4.00;;
1949;SDS011;975;48.760;9.152;2023-06-26T06:56:45;6.00;;;3.95;;
1949;SDS011;975;48.760;9.152;2023-06-26T06:59:32;8.93;;;3.95;;
1949;SDS011;975;48.760;9.152;2023-06-26T07:02:20;4.90;;;3.35;;
1949;SDS011;975;48.760;9.152;2023-06-26T07:05:09;6.25;;;3.90;;
1949;SDS011;975;48.760;9.152;2023-06-26T07:07:57;6.03;;;3.25;;
1949;SDS011;975;48.760;9.152;2023-06-26T07:10:44;7.68;;;4.10;;
1949;SDS011;975;48.760;9.152;2023-06-26T07:13:32;5.45;;;3.70;;
1949;SDS011;975;48.760;9.152;2023-06-26T07:16:20;5.30;;;3.72;;
1949;SDS011;975;48.760;9.152;2023-06-26T07:19:08;4.68;;;3.30;;
1949;SDS011;975;48.760;9.152;2023-06-26T07:21:57;6.43;;;3.60;;
1949;SDS011;975;48.760;9.152;2023-06-26T07:27:32;5.97;;;3.70;;
1949;SDS011;975;48.760;9.152;2023-06-26T07:30:20;7.93;;;4.50;;
1949;SDS011;975;48.760;9.152;2023-06-26T07:33:07;9.77;;;4.03;;
1949;SDS011;975;48.760;9.152;2023-06-26T07:35:55;7.00;;;3.70;;
1949;SDS011;975;48.760;9.152;2023-06-26T07:38:44;4.75;;;3.38;;
1949;SDS011;975;48.760;9.152;2023-06-26T07:41:32;5.47;;;3.67;;
1949;SDS011;975;48.760;9.152;2023-06-26T07:44:20;6.38;;;3.90;;
1949;SDS011;975;48.760;9.152;2023-06-26T07:47:07;4.60;;;3.50;;
1949;SDS011;975;48.760;9.152;2023-06-26T07:49:55;7.40;;;3.72;;
1949;SDS011;975;48.760;9.152;2023-06-26T07:52:43;4.35;;;3.58;;
1949;SDS011;975;48.760;9.152;2023-06-26T07:55:32;5.32;;;3.30;;
1949;SDS011;975;48.760;9.152;2023-06-26T08:01:07;5.35;;;3.83;;
1949;SDS011;975;48.760;9.152;2023-06-26T08:03:55;4.13;;;3.25;;
1949;SDS011;975;48.760;9.152;2023-06-26T08:06:43;4.57;;;3.35;;
1949;SDS011;975;48.760;9.152;2023-06-26T08:09:30;5.68;;;3.65;;
1949;SDS011;975;48.760;9.152;2023-06-26T08:12:19;4.28;;;2.95;;
1949;SDS011;975;48.760;9.152;2023-06-26T08:15:07;5.75;;;3.65;;
1949;SDS011;975;48.760;9.152;2023-06-26T08:17:55;5.97;;;3.60;;
1949;SDS011;975;48.760;9.152;2023-06-26T08:20:43;6.88;;;3.60;;
1949;SDS011;975;48.760;9.152;2023-06-26T08:23:31;6.55;;;3.95;;
1949;SDS011;975;48.760;9.152;2023-06-26T08:26:19;6.07;;;3.55;;
1949;SDS011;975;48.760;9.152;2023-06-26T08:29:08;6.15;;;4.03;;
1949;SDS011;975;48.760;9.152;2023-06-26T08:31:55;4.50;;;3.42;;
1949;SDS011;975;48.760;9.152;2023-06-26T08:34:43;12.02;;;4.28;;
1949;SDS011;975;48.760;9.152;2023-06-26T08:37:31;8.88;;;4.15;;
1949;SDS011;975;48.760;9.152;2023-06-26T08:40:19;4.55;;;3.70;;
1949;SDS011;975;48.760;9.152;2023-06-26T08:43:07;6.35;;;4.10;;
1949;SDS011;975;48.760;9.152;2023-06-26T08:45:56;5.55;;;3.58;;
1949;SDS011;975;48.760;9.152;2023-06-26T08:48:45;5.07;;;3.53;;
1949;SDS011;975;48.760;9.152;2023-06-26T08:51:35;4.80;;;3.80;;
1949;SDS011;975;48.760;9.152;2023-06-26T08:54:26;8.68;;;3.42;;
1949;SDS011;975;48.760;9.152;2023-06-26T08:57:18;9.23;;;3.90;;
1949;SDS011;975;48.760;9.152;2023-06-26T09:00:06;6.25;;;3.65;;
1949;SDS011;975;48.760;9.152;2023-06-26T09:02:55;5.65;;;3.80;;
1949;SDS011;975;48.760;9.152;2023-06-26T09:05:43;6.68;;;3.35;;
1949;SDS011;975;48.760;9.152;2023-06-26T09:08:31;9.80;;;3.80;;
1949;SDS011;975;48.760;9.152;2023-06-26T09:11:19;6.53;;;4.18;;
1949;SDS011;975;48.760;9.152;2023-06-26T09:14:07;5.13;;;3.90;;
1949;SDS011;975;48.760;9.152;2023-06-26T09:19:46;6.28;;;4.20;;
1949;SDS011;975;48.760;9.152;2023-06-26T09:22:36;5.20;;;4.20;;
1949;SDS011;975;48.760;9.152;2023-06-26T09:25:25;5.43;;;4.15;;
1949;SDS011;975;48.760;9.152;2023-06-26T09:28:13;5.55;;;3.60;;
1949;SDS011;975;48.760;9.152;2023-06-26T09:31:01;5.70;;;4.05;;
1949;SDS011;975;48.760;9.152;2023-06-26T09:33:49;4.93;;;3.75;;
1949;SDS011;975;48.760;9.152;2023-06-26T09:36:44;4.40;;;3.70;;
1949;SDS011;975;48.760;9.152;2023-06-26T09:39:33;5.07;;;3.70;;
1949;SDS011;975;48.760;9.152;2023-06-26T09:42:21;6.13;;;3.63;;
1949;SDS011;975;48.760;9.152;2023-06-26T09:45:12;4.50;;;3.47;;
1949;SDS011;975;48.760;9.152;2023-06-26T09:48:05;5.15;;;4.28;;
1949;SDS011;975;48.760;9.152;2023-06-26T09:50:54;4.50;;;3.55;;
1949;SDS011;975;48.760;9.152;2023-06-26T09:53:44;5.75;;;3.72;;
1949;SDS011;975;48.760;9.152;2023-06-26T09:56:32;4.80;;;3.90;;
1949;SDS011;975;48.760;9.152;2023-06-26T09:59:20;7.82;;;3.97;;
1949;SDS011;975;48.760;9.152;2023-06-26T10:02:08;4.65;;;3.67;;
1949;SDS011;975;48.760;9.152;2023-06-26T10:04:56;11.60;;;4.55;;
1949;SDS011;975;48.760;9.152;2023-06-26T10:07:45;4.68;;;3.97;;
1949;SDS011;975;48.760;9.152;2023-06-26T10:13:25;6.88;;;4.00;;
1949;SDS011;975;48.760;9.152;2023-06-26T10:16:14;5.82;;;4.30;;
1949;SDS011;975;48.760;9.152;2023-06-26T10:19:05;5.10;;;4.30;;
1949;SDS011;975;48.760;9.152;2023-06-26T10:21:54;6.45;;;4.72;;
1949;SDS011;975;48.760;9.152;2023-06-26T10:24:42;12.98;;;4.95;;
1949;SDS011;975;48.760;9.152;2023-06-26T10:27:32;6.60;;;4.07;;
1949;SDS011;975;48.760;9.152;2023-06-26T10:30:24;5.75;;;4.50;;
1949;SDS011;975;48.760;9.152;2023-06-26T10:33:13;7.47;;;4.57;;
1949;SDS011;975;48.760;9.152;2023-06-26T10:36:13;5.07;;;3.67;;
1949;SDS011;975;48.760;9.152;2023-06-26T10:39:02;5.38;;;4.07;;
1949;SDS011;975;48.760;9.152;2023-06-26T10:41:52;4.90;;;4.03;;
1949;SDS011;975;48.760;9.152;2023-06-26T10:44:42;6.03;;;4.28;;
1949;SDS011;975;48.760;9.152;2023-06-26T10:47:32;9.30;;;4.55;;
1949;SDS011;975;48.760;9.152;2023-06-26T10:50:23;7.60;;;4.38;;
1949;SDS011;975;48.760;9.152;2023-06-26T10:53:14;5.53;;;3.95;;
1949;SDS011;975;48.760;9.152;2023-06-26T10:56:05;5.05;;;3.90;;
1949;SDS011;975;48.760;9.152;2023-06-26T10:58:53;7.07;;;4.43;;
1949;SDS011;975;48.760;9.152;2023-06-26T11:01:58;5.97;;;3.85;;
1949;SDS011;975;48.760;9.152;2023-06-26T11:04:49;6.35;;;4.50;;
1949;SDS011;975;48.760;9.152;2023-06-26T11:07:38;6.10;;;4.57;;
1949;SDS011;975;48.760;9.152;2023-06-26T11:10:50;12.20;;;4.63;;
1949;SDS011;975;48.760;9.152;2023-06-26T11:13:40;8.15;;;3.90;;
1949;SDS011;975;48.760;9.152;2023-06-26T11:16:29;6.75;;;4.80;;
1949;SDS011;975;48.760;9.152;2023-06-26T11:19:18;5.95;;;4.50;;
1949;SDS011;975;48.760;9.152;2023-06-26T11:22:07;9.38;;;4.40;;
1949;SDS011;975;48.760;9.152;2023-06-26T11:24:55;6.18;;;4.20;;
1949;SDS011;975;48.760;9.152;2023-06-26T11:27:46;6.18;;;4.28;;
1949;SDS011;975;48.760;9.152;2023-06-26T11:30:35;8.23;;;4.75;;
1949;SDS011;975;48.760;9.152;2023-06-26T11:33:26;6.53;;;4.38;;
1949;SDS011;975;48.760;9.152;2023-06-26T11:36:14;14.57;;;5.18;;
1949;SDS011;975;48.760;9.152;2023-06-26T11:39:03;7.28;;;5.05;;
1949;SDS011;975;48.760;9.152;2023-06-26T11:41:51;7.68;;;5.10;;
1949;SDS011;975;48.760;9.152;2023-06-26T11:44:42;6.25;;;4.63;;
1949;SDS011;975;48.760;9.152;2023-06-26T11:47:30;6.60;;;4.38;;
1949;SDS011;975;48.760;9.152;2023-06-26T11:50:18;8.77;;;4.85;;
1949;SDS011;975;48.760;9.152;2023-06-26T11:53:05;5.07;;;4.00;;
1949;SDS011;975;48.760;9.152;2023-06-26T11:55:55;7.65;;;4.80;;
1949;SDS011;975;48.760;9.152;2023-06-26T11:58:55;6.10;;;4.07;;
1949;SDS011;975;48.760;9.152;2023-06-26T12:01:44;11.85;;;5.03;;
1949;SDS011;975;48.760;9.152;2023-06-26T12:04:32;6.70;;;4.85;;
1949;SDS011;975;48.760;9.152;2023-06-26T12:07:20;7.38;;;4.53;;
1949;SDS011;975;48.760;9.152;2023-06-26T12:10:09;5.93;;;4.60;;
1949;SDS011;975;48.760;9.152;2023-06-26T12:12:59;8.57;;;5.20;;
1949;SDS011;975;48.760;9.152;2023-06-26T12:15:47;7.07;;;4.03;;
1949;SDS011;975;48.760;9.152;2023-06-26T12:18:36;6.50;;;4.80;;
1949;SDS011;975;48.760;9.152;2023-06-26T12:21:28;5.20;;;3.90;;
1949;SDS011;975;48.760;9.152;2023-06-26T12:24:16;9.00;;;5.03;;
1949;SDS011;975;48.760;9.152;2023-06-26T12:27:07;6.13;;;4.72;;
1949;SDS011;975;48.760;9.152;2023-06-26T12:29:56;6.45;;;4.63;;
1949;SDS011;975;48.760;9.152;2023-06-26T12:32:44;5.97;;;4.40;;
1949;SDS011;975;48.760;9.152;2023-06-26T12:35:33;6.03;;;4.00;;
1949;SDS011;975;48.760;9.152;2023-06-26T12:38:21;6.30;;;3.40;;
1949;SDS011;975;48.760;9.152;2023-06-26T12:41:11;6.05;;;4.45;;
1949;SDS011;975;48.760;9.152;2023-06-26T12:44:00;6.88;;;4.32;;
1949;SDS011;975;48.760;9.152;2023-06-26T12:46:49;8.52;;;4.32;;
1949;SDS011;975;48.760;9.152;2023-06-26T12:49:41;5.78;;;4.05;;
1949;SDS011;975;48.760;9.152;2023-06-26T12:52:29;7.05;;;4.43;;
1949;SDS011;975;48.760;9.152;2023-06-26T12:55:17;6.38;;;4.80;;
1949;SDS011;975;48.760;9.152;2023-06-26T12:58:05;8.75;;;4.30;;
1949;SDS011;975;48.760;9.152;2023-06-26T13:00:53;7.00;;;4.38;;
1949;SDS011;975;48.760;9.152;2023-06-26T13:03:44;6.47;;;3.92;;
1949;SDS011;975;48.760;9.152;2023-06-26T13:06:33;7.03;;;4.43;;
1949;SDS011;975;48.760;9.152;2023-06-26T13:09:20;7.68;;;4.75;;
1949;SDS011;975;48.760;9.152;2023-06-26T13:12:09;10.07;;;4.50;;
1949;SDS011;975;48.760;9.152;2023-06-26T13:14:57;8.43;;;4.55;;
1949;SDS011;975;48.760;9.152;2023-06-26T13:17:44;5.38;;;4.10;;
1949;SDS011;975;48.760;9.152;2023-06-26T13:20:34;7.65;;;4.78;;
1949;SDS011;975;48.760;9.152;2023-06-26T13:23:21;7.38;;;4.40;;
1949;SDS011;975;48.760;9.152;2023-06-26T13:26:09;4.68;;;3.25;;
1949;SDS011;975;48.760;9.152;2023-06-26T13:28:58;6.63;;;3.80;;
1949;SDS011;975;48.760;9.152;2023-06-26T13:31:47;7.88;;;4.22;;
1949;SDS011;975;48.760;9.152;2023-06-26T13:34:34;8.57;;;4.38;;
1949;SDS011;975;48.760;9.152;2023-06-26T13:37:24;8.73;;;3.92;;
1949;SDS011;975;48.760;9.152;2023-06-26T13:40:12;5.57;;;4.05;;
1949;SDS011;975;48.760;9.152;2023-06-26T13:43:00;5.55;;;4.07;;
1949;SDS011;975;48.760;9.152;2023-06-26T13:45:49;9.98;;;5.28;;
1949;SDS011;975;48.760;9.152;2023-06-26T13:48:37;5.68;;;3.60;;
1949;SDS011;975;48.760;9.152;2023-06-26T13:51:25;5.82;;;3.88;;
1949;SDS011;975;48.760;9.152;2023-06-26T13:54:14;6.75;;;4.00;;
1949;SDS011;975;48.760;9.152;2023-06-26T13:57:04;5.97;;;3.25;;
1949;SDS011;975;48.760;9.152;2023-06-26T13:59:52;5.85;;;3.47;;
1949;SDS011;975;48.760;9.152;2023-06-26T14:02:39;6.50;;;3.55;;
1949;SDS011;975;48.760;9.152;2023-06-26T14:05:27;3.65;;;3.03;;
1949;SDS011;975;48.760;9.152;2023-06-26T14:08:15;5.85;;;3.58;;
1949;SDS011;975;48.760;9.152;2023-06-26T14:11:05;5.85;;;3.42;;
1949;SDS011;975;48.760;9.152;2023-06-26T14:13:53;4.75;;;3.03;;
1949;SDS011;975;48.760;9.152;2023-06-26T14:16:41;3.97;;;3.10;;
1949;SDS011;975;48.760;9.152;2023-06-26T14:19:28;9.63;;;4.15;;
1949;SDS011;975;48.760;9.152;2023-06-26T14:22:16;5.15;;;2.83;;
1949;SDS011;975;48.760;9.152;2023-06-26T14:25:05;4.20;;;2.85;;
1949;SDS011;975;48.760;9.152;2023-06-26T14:27:54;3.92;;;2.53;;
1949;SDS011;975;48.760;9.152;2023-06-26T14:30:42;5.88;;;2.60;;
1949;SDS011;975;48.760;9.152;2023-06-26T14:33:30;5.63;;;2.97;;
1949;SDS011;975;48.760;9.152;2023-06-26T14:36:19;3.78;;;2.33;;
1949;SDS011;975;48.760;9.152;2023-06-26T14:39:07;4.32;;;2.38;;
1949;SDS011;975;48.760;9.152;2023-06-26T14:41:55;6.57;;;2.75;;
1949;SDS011;975;48.760;9.152;2023-06-26T14:44:44;4.15;;;2.30;;
1949;SDS011;975;48.760;9.152;2023-06-26T14:47:35;3.40;;;2.60;;
1949;SDS011;975;48.760;9.152;2023-06-26T14:50:25;7.78;;;2.83;;
1949;SDS011;975;48.760;9.152;2023-06-26T14:53:13;4.88;;;2.85;;
1949;SDS011;975;48.760;9.152;2023-06-26T14:56:15;4.90;;;2.55;;
1949;SDS011;975;48.760;9.152;2023-06-26T14:59:04;3.78;;;2.30;;
1949;SDS011;975;48.760;9.152;2023-06-26T15:04:41;3.72;;;2.38;;
1949;SDS011;975;48.760;9.152;2023-06-26T15:07:29;5.45;;;2.60;;
1949;SDS011;975;48.760;9.152;2023-06-26T15:10:20;4.13;;;2.10;;
1949;SDS011;975;48.760;9.152;2023-06-26T15:13:21;5.43;;;2.45;;
1949;SDS011;975;48.760;9.152;2023-06-26T15:16:11;5.85;;;2.85;;
1949;SDS011;975;48.760;9.152;2023-06-26T15:18:59;4.15;;;2.60;;
1949;SDS011;975;48.760;9.152;2023-06-26T15:21:59;6.57;;;2.83;;
1949;SDS011;975;48.760;9.152;2023-06-26T15:24:50;4.95;;;2.75;;
1949;SDS011;975;48.760;9.152;2023-06-26T15:27:38;2.78;;;2.35;;
1949;SDS011;975;48.760;9.152;2023-06-26T15:30:39;7.93;;;2.80;;
1949;SDS011;975;48.760;9.152;2023-06-26T15:33:28;4.65;;;2.90;;
1949;SDS011;975;48.760;9.152;2023-06-26T15:36:21;5.90;;;2.97;;
1949;SDS011;975;48.760;9.152;2023-06-26T15:42:26;5.63;;;3.00;;
1949;SDS011;975;48.760;9.152;2023-06-26T15:45:15;6.90;;;3.28;;
1949;SDS011;975;48.760;9.152;2023-06-26T15:48:03;9.95;;;3.25;;
1949;SDS011;975;48.760;9.152;2023-06-26T15:50:51;4.25;;;2.83;;
1949;SDS011;975;48.760;9.152;2023-06-26T15:53:53;4.50;;;3.00;;
1949;SDS011;975;48.760;9.152;2023-06-26T15:56:54;9.63;;;3.63;;
1949;SDS011;975;48.760;9.152;2023-06-26T15:59:45;4.95;;;3.17;;
1949;SDS011;975;48.760;9.152;2023-06-26T16:02:36;8.38;;;3.40;;
1949;SDS011;975;48.760;9.152;2023-06-26T16:05:37;6.45;;;3.78;;
1949;SDS011;975;48.760;9.152;2023-06-26T16:08:26;6.88;;;3.78;;
1949;SDS011;975;48.760;9.152;2023-06-26T16:11:14;5.40;;;3.22;;
1949;SDS011;975;48.760;9.152;2023-06-26T16:14:05;6.00;;;3.88;;
1949;SDS011;975;48.760;9.152;2023-06-26T16:17:10;9.02;;;4.50;;
1949;SDS011;975;48.760;9.152;2023-06-26T16:19:58;6.82;;;3.83;;
1949;SDS011;975;48.760;9.152;2023-06-26T16:22:46;9.13;;;4.40;;
1949;SDS011;975;48.760;9.152;2023-06-26T16:25:34;7.35;;;3.67;;
1949;SDS011;975;48.760;9.152;2023-06-26T16:28:22;6.35;;;3.95;;
1949;SDS011;975;48.760;9.152;2023-06-26T16:31:10;5.60;;;3.88;;
1949;SDS011;975;48.760;9.152;2023-06-26T16:34:00;7.20;;;3.95;;
1949;SDS011;975;48.760;9.152;2023-06-26T16:36:48;8.55;;;3.95;;
1949;SDS011;975;48.760;9.152;2023-06-26T16:39:37;5.97;;;3.70;;
1949;SDS011;975;48.760;9.152;2023-06-26T16:42:25;18.70;;;4.35;;
1949;SDS011;975;48.760;9.152;2023-06-26T16:45:13;6.68;;;3.40;;
1949;SDS011;975;48.760;9.152;2023-06-26T16:48:02;6.18;;;3.53;;
1949;SDS011;975;48.760;9.152;2023-06-26T16:50:58;5.63;;;3.17;;
1949;SDS011;975;48.760;9.152;2023-06-26T16:53:46;5.05;;;3.05;;
1949;SDS011;975;48.760;9.152;2023-06-26T16:56:47;6.10;;;2.88;;
1949;SDS011;975;48.760;9.152;2023-06-26T16:59:35;8.02;;;2.80;;
1949;SDS011;975;48.760;9.152;2023-06-26T17:05:13;6.18;;;2.55;;
1949;SDS011;975;48.760;9.152;2023-06-26T17:08:03;2.35;;;1.73;;
1949;SDS011;975;48.760;9.152;2023-06-26T17:10:52;5.10;;;1.80;;
1949;SDS011;975;48.760;9.152;2023-06-26T17:13:39;5.43;;;1.73;;
1949;SDS011;975;48.760;9.152;2023-06-26T17:16:27;9.13;;;2.00;;
1949;SDS011;975;48.760;9.152;2023-06-26T17:19:15;5.25;;;1.45;;
1949;SDS011;975;48.760;9.152;2023-06-26T17:22:03;1.77;;;1.40;;
1949;SDS011;975;48.760;9.152;2023-06-26T17:24:52;1.70;;;1.20;;
1949;SDS011;975;48.760;9.152;2023-06-26T17:27:44;6.00;;;1.40;;
1949;SDS011;975;48.760;9.152;2023-06-26T17:30:32;3.67;;;1.80;;
1949;SDS011;975;48.760;9.152;2023-06-26T17:33:20;3.60;;;1.55;;
1949;SDS011;975;48.760;9.152;2023-06-26T17:36:09;7.25;;;1.27;;
1949;SDS011;975;48.760;9.152;2023-06-26T17:38:57;5.78;;;1.63;;
1949;SDS011;975;48.760;9.152;2023-06-26T17:41:48;3.42;;;1.25;;
1949;SDS011;975;48.760;9.152;2023-06-26T17:44:36;3.17;;;1.27;;
1949;SDS011;975;48.760;9.152;2023-06-26T17:47:24;3.15;;;1.50;;
1949;SDS011;975;48.760;9.152;2023-06-26T17:50:13;4.57;;;1.70;;
1949;SDS011;975;48.760;9.152;2023-06-26T17:53:01;4.57;;;1.50;;
1949;SDS011;975;48.760;9.152;2023-06-26T17:55:52;5.03;;;1.55;;
1949;SDS011;975;48.760;9.152;2023-06-26T17:58:41;2.45;;;1.50;;
1949;SDS011;975;48.760;9.152;2023-06-26T18:01:29;3.00;;;1.25;;
1949;SDS011;975;48.760;9.152;2023-06-26T18:04:17;2.10;;;1.40;;
1949;SDS011;975;48.760;9.152;2023-06-26T18:07:05;3.20;;;1.13;;
1949;SDS011;975;48.760;9.152;2023-06-26T18:09:53;3.75;;;1.38;;
1949;SDS011;975;48.760;9.152;2023-06-26T18:12:41;2.88;;;1.48;;